createdAt,value
2017-12-25T00:00:40.701Z,2.53
2017-12-25T00:05:42.227Z,2.37
2017-12-25T00:10:43.730Z,1.20
2017-12-25T00:15:45.255Z,1.93
2017-12-25T00:20:47.748Z,1.40
2017-12-25T00:25:50.008Z,2.07
2017-12-25T00:30:51.712Z,2.20
2017-12-25T00:35:53.257Z,2.80
2017-12-25T00:40:55.536Z,4.20
2017-12-25T00:45:57.062Z,2.03
2017-12-25T00:50:58.617Z,3.70
2017-12-25T00:56:00.136Z,2.10
2017-12-25T01:01:01.721Z,2.47
2017-12-25T01:06:03.977Z,2.80
2017-12-25T01:11:05.555Z,2.20
2017-12-25T01:16:07.075Z,2.90
2017-12-25T01:21:08.604Z,2.40
2017-12-25T01:26:10.880Z,3.60
2017-12-25T01:47:12.528Z,2.67
2017-12-25T01:52:14.023Z,2.80
2017-12-25T02:13:14.972Z,2.33
2017-12-25T02:18:17.254Z,2.53
2017-12-25T02:23:19.494Z,2.17
2017-12-25T02:28:21.021Z,2.00
2017-12-25T02:33:23.258Z,2.10
2017-12-25T02:38:24.769Z,2.40
2017-12-25T02:43:27.131Z,2.77
2017-12-25T02:48:28.648Z,3.47
2017-12-25T02:53:30.184Z,4.27
2017-12-25T02:58:32.433Z,2.80
2017-12-25T03:03:33.952Z,1.97
2017-12-25T03:08:35.456Z,2.83
2017-12-25T03:13:36.996Z,2.17
2017-12-25T03:18:38.515Z,2.10
2017-12-25T03:23:40.741Z,2.07
2017-12-25T03:28:42.289Z,3.40
2017-12-25T03:33:44.537Z,2.07
2017-12-25T03:38:46.080Z,1.90
2017-12-25T03:43:47.625Z,1.50
2017-12-25T03:48:49.172Z,1.73
2017-12-25T03:53:51.429Z,1.50
2017-12-25T03:58:52.948Z,1.40
2017-12-25T04:03:54.529Z,1.70
2017-12-25T04:08:56.106Z,1.37
2017-12-25T04:13:57.624Z,1.80
2017-12-25T04:18:59.137Z,1.40
2017-12-25T04:24:00.755Z,2.60
2017-12-25T04:29:02.257Z,2.20
2017-12-25T04:34:03.748Z,2.00
2017-12-25T04:39:05.257Z,3.83
2017-12-25T04:44:06.750Z,3.00
2017-12-25T04:49:08.268Z,3.03
2017-12-25T04:54:09.804Z,4.30
2017-12-25T04:59:11.358Z,2.90
2017-12-25T05:04:12.867Z,2.40
2017-12-25T05:09:14.354Z,2.73
2017-12-25T05:14:15.860Z,4.13
2017-12-25T05:19:17.353Z,9.30
2017-12-25T05:24:18.830Z,3.70
2017-12-25T05:29:20.310Z,2.83
2017-12-25T05:34:21.835Z,3.00
2017-12-25T05:39:23.346Z,2.47
2017-12-25T05:44:24.816Z,3.80
2017-12-25T05:49:26.318Z,2.97
2017-12-25T05:54:27.848Z,4.90
2017-12-25T05:59:29.349Z,5.27
2017-12-25T06:04:31.621Z,4.00
2017-12-25T06:09:33.867Z,4.17
2017-12-25T06:14:35.400Z,3.60
2017-12-25T06:19:36.880Z,2.90
2017-12-25T06:24:38.427Z,4.77
2017-12-25T06:29:39.932Z,3.73
2017-12-25T06:34:41.440Z,3.87
2017-12-25T06:39:43.673Z,2.53
2017-12-25T06:44:45.213Z,2.60
2017-12-25T06:49:46.672Z,3.13
2017-12-25T06:54:48.227Z,8.60
2017-12-25T06:59:50.464Z,2.03
2017-12-25T07:04:51.978Z,2.90
2017-12-25T07:09:54.216Z,2.60
2017-12-25T07:14:55.662Z,1.40
2017-12-25T07:19:57.169Z,1.53
2017-12-25T07:24:58.692Z,8.03
2017-12-25T07:30:00.229Z,1.40
2017-12-25T07:35:02.489Z,2.10
2017-12-25T07:40:03.987Z,2.40
2017-12-25T07:45:06.241Z,1.23
2017-12-25T07:50:07.755Z,3.00
2017-12-25T07:55:09.244Z,1.20
2017-12-25T08:00:10.735Z,0.70
2017-12-25T08:05:12.229Z,0.83
2017-12-25T08:10:14.457Z,1.30
2017-12-25T08:15:15.960Z,3.50
2017-12-25T08:20:17.465Z,2.00
2017-12-25T08:25:18.960Z,1.27
2017-12-25T08:30:20.460Z,0.87
2017-12-25T08:35:22.004Z,1.90
2017-12-25T08:40:23.612Z,1.50
2017-12-25T08:45:25.866Z,1.43
2017-12-25T08:50:27.446Z,0.93
2017-12-25T08:55:28.985Z,1.27
2017-12-25T09:00:30.537Z,1.53
2017-12-25T09:05:32.038Z,1.50
2017-12-25T09:10:33.642Z,1.60
2017-12-25T09:15:35.956Z,1.40
2017-12-25T09:20:37.416Z,1.33
2017-12-25T09:25:38.928Z,1.57
2017-12-25T09:30:40.466Z,1.83
2017-12-25T09:35:42.100Z,2.60
2017-12-25T09:40:44.334Z,1.87
2017-12-25T09:45:45.908Z,1.00
2017-12-25T09:50:47.446Z,1.10
2017-12-25T09:55:48.921Z,1.03
2017-12-25T10:00:50.530Z,2.17
2017-12-25T10:05:52.062Z,3.37
2017-12-25T10:10:53.577Z,1.30
2017-12-25T10:15:55.089Z,2.73
2017-12-25T10:20:56.663Z,1.90
2017-12-25T10:25:58.253Z,1.63
2017-12-25T10:30:59.796Z,1.97
2017-12-25T10:36:01.381Z,1.57
2017-12-25T10:41:02.905Z,1.70
2017-12-25T10:46:04.592Z,1.67
2017-12-25T10:51:06.103Z,2.70
2017-12-25T10:56:07.585Z,2.50
2017-12-25T11:01:09.144Z,3.30
2017-12-25T11:06:10.744Z,3.33
2017-12-25T11:11:12.360Z,3.00
2017-12-25T11:16:13.915Z,32.93
2017-12-25T11:21:15.445Z,8.30
2017-12-25T11:26:17.825Z,15.97
2017-12-25T11:31:20.107Z,6.10
2017-12-25T11:36:22.433Z,7.70
2017-12-25T11:41:23.952Z,5.20
2017-12-25T11:46:26.467Z,46.57
2017-12-25T11:51:28.036Z,4.80
2017-12-25T11:56:29.578Z,2.20
2017-12-25T12:01:31.936Z,3.83
2017-12-25T12:06:33.466Z,3.10
2017-12-25T12:11:34.988Z,3.33
2017-12-25T12:16:36.529Z,20.33
2017-12-25T12:21:38.052Z,3.13
2017-12-25T12:26:39.601Z,3.00
2017-12-25T12:31:41.861Z,2.30
2017-12-25T12:36:43.451Z,2.23
2017-12-25T12:41:45.014Z,3.03
2017-12-25T12:46:46.593Z,2.93
2017-12-25T12:51:48.907Z,1.77
2017-12-25T12:56:50.380Z,3.83
2017-12-25T13:01:51.928Z,1.73
2017-12-25T13:06:54.179Z,2.17
2017-12-25T13:11:55.745Z,2.30
2017-12-25T13:16:57.306Z,3.53
2017-12-25T13:21:58.837Z,4.50
2017-12-25T13:27:00.441Z,2.80
2017-12-25T13:32:02.087Z,5.03
2017-12-25T13:37:03.621Z,5.43
2017-12-25T13:42:05.134Z,9.53
2017-12-25T13:47:06.669Z,21.77
2017-12-25T13:52:08.295Z,23.73
2017-12-25T13:57:09.820Z,20.20
2017-12-25T14:02:11.401Z,22.53
2017-12-25T14:07:13.013Z,21.87
2017-12-25T14:12:15.397Z,16.40
2017-12-25T14:17:17.885Z,16.77
2017-12-25T14:22:19.425Z,16.97
2017-12-25T14:27:20.931Z,19.10
2017-12-25T14:32:23.216Z,16.37
2017-12-25T14:37:25.559Z,20.77
2017-12-25T14:42:27.144Z,16.60
2017-12-25T14:47:28.623Z,22.10
2017-12-25T14:52:30.192Z,26.27
2017-12-25T14:57:31.665Z,32.57
2017-12-25T15:02:33.933Z,20.50
2017-12-25T15:07:35.494Z,20.10
2017-12-25T15:12:36.984Z,20.40
2017-12-25T15:17:39.328Z,19.87
2017-12-25T15:22:40.843Z,25.43
2017-12-25T15:27:42.525Z,19.80
2017-12-25T15:32:44.036Z,18.67
2017-12-25T15:37:45.620Z,18.47
2017-12-25T15:42:47.187Z,37.00
2017-12-25T15:47:48.797Z,23.10
2017-12-25T15:52:51.110Z,17.53
2017-12-25T15:57:52.814Z,18.87
2017-12-25T16:02:54.291Z,21.40
2017-12-25T16:07:55.894Z,20.70
2017-12-25T16:12:57.454Z,23.60
2017-12-25T16:17:59.732Z,25.93
2017-12-25T16:23:01.999Z,24.63
2017-12-25T16:28:03.546Z,37.53
2017-12-25T16:33:05.097Z,20.60
2017-12-25T16:38:06.694Z,90.23
2017-12-25T16:43:08.278Z,29.47
2017-12-25T16:48:10.556Z,31.10
2017-12-25T16:53:12.119Z,28.17
2017-12-25T16:58:13.723Z,26.17
2017-12-25T17:03:16.004Z,19.73
2017-12-25T17:08:18.245Z,28.73
2017-12-25T17:13:19.797Z,27.37
2017-12-25T17:18:21.323Z,28.23
2017-12-25T17:23:23.512Z,30.40
2017-12-25T17:28:25.035Z,29.07
2017-12-25T17:33:26.571Z,33.03
2017-12-25T17:38:28.216Z,33.17
2017-12-25T17:43:29.787Z,27.63
2017-12-25T17:48:31.288Z,25.90
2017-12-25T17:53:32.798Z,36.10
2017-12-25T17:58:34.373Z,34.30
2017-12-25T18:03:36.594Z,29.07
2017-12-25T18:08:38.101Z,28.00
2017-12-25T18:13:39.613Z,30.47
2017-12-25T18:18:41.201Z,29.37
2017-12-25T18:23:42.726Z,31.80
2017-12-25T18:28:45.050Z,29.57
2017-12-25T18:33:46.578Z,29.50
2017-12-25T18:38:48.924Z,32.70
2017-12-25T18:43:50.470Z,35.50
2017-12-25T18:48:51.966Z,28.90
2017-12-25T18:53:53.502Z,33.53
2017-12-25T18:58:55.162Z,32.67
2017-12-25T19:03:56.694Z,34.10
2017-12-25T19:08:59.030Z,35.70
2017-12-25T19:14:00.528Z,31.40
2017-12-25T19:19:02.079Z,33.67
2017-12-25T19:24:03.579Z,45.23
2017-12-25T19:29:05.103Z,35.10
2017-12-25T19:34:06.674Z,33.50
2017-12-25T19:39:08.149Z,31.27
2017-12-25T19:44:09.724Z,39.93
2017-12-25T19:49:11.285Z,37.10
2017-12-25T19:54:12.958Z,40.80
2017-12-25T19:59:14.538Z,43.77
2017-12-25T20:04:16.008Z,43.20
2017-12-25T20:09:17.954Z,42.70
2017-12-25T20:14:19.572Z,42.00
2017-12-25T20:19:22.157Z,47.90
2017-12-25T20:24:23.710Z,55.87
2017-12-25T20:29:25.216Z,48.20
2017-12-25T20:34:26.803Z,47.30
2017-12-25T20:39:29.412Z,50.27
2017-12-25T20:44:31.079Z,45.20
2017-12-25T20:49:32.606Z,52.57
2017-12-25T20:54:34.805Z,57.70
2017-12-25T20:59:36.425Z,53.97
2017-12-25T21:04:37.984Z,64.10
2017-12-25T21:09:39.517Z,76.87
2017-12-25T21:14:41.007Z,62.47
2017-12-25T21:19:42.536Z,59.17
2017-12-25T21:24:44.841Z,51.00
2017-12-25T21:29:46.402Z,58.00
2017-12-25T21:34:47.859Z,52.13
2017-12-25T21:39:50.281Z,59.50
2017-12-25T21:44:51.789Z,59.30
2017-12-25T21:49:53.336Z,61.87
2017-12-25T21:54:54.862Z,65.63
2017-12-25T21:59:56.402Z,69.33
2017-12-25T22:04:58.824Z,78.53
2017-12-25T22:10:00.353Z,62.93
2017-12-25T22:15:02.855Z,108.60
2017-12-25T22:20:05.037Z,71.27
2017-12-25T22:25:07.413Z,68.30
2017-12-25T22:30:09.612Z,75.80
2017-12-25T22:35:11.817Z,75.73
2017-12-25T22:40:13.334Z,79.90
2017-12-25T22:45:15.024Z,87.87
2017-12-25T22:50:17.264Z,77.03
2017-12-25T22:55:18.940Z,92.43
2017-12-25T23:00:20.567Z,80.53
2017-12-25T23:05:22.817Z,82.83
2017-12-25T23:10:24.398Z,91.63
2017-12-25T23:15:26.798Z,88.30
2017-12-25T23:20:28.359Z,95.40
2017-12-25T23:25:30.646Z,82.80
2017-12-25T23:30:32.965Z,87.70
2017-12-25T23:35:34.501Z,91.23
2017-12-25T23:40:36.757Z,87.30
2017-12-25T23:45:38.322Z,98.60
2017-12-25T23:50:39.924Z,95.07
2017-12-25T23:55:41.492Z,97.90
